Hitchita, Oklahoma
Current Conditions -  °F | °C
As of 5:35 PM on Saturday 20 Dec 2014 (Local Time) from KOKM Reporting Station
Overcast Overcast  
Wind Chill: 38°   Ceiling: 1500
Heat Index: 42°   Visibility: 10mi
Dew Point: 38°   Wind: 6mph
Humidity: 86%   Direction: 200°SSW
Pressure: 30.19"   Gusts: NA
Location:  35.52°N, 95.75°W
Report Text: KOKM 202335Z AUTO 20005KT 10SM OVC015 06/03 A3019 RMK AO2 T00550033
Loading
Personal Weather Stations






























Interactive Weather Map New forecast layout! Learn more

10-Day Weather Forecast

Advertisements
Track Severe Weather on mobile